sensor_id;sensor_type;location;lat;lon;timestamp;P1;durP1;ratioP1;P2;durP2;ratioP2
5171;SDS011;2605;49.770;9.868;2023-08-01T00:02:11;6.50;;;5.63;;
5171;SDS011;2605;49.770;9.868;2023-08-01T00:04:36;8.10;;;6.10;;
5171;SDS011;2605;49.770;9.868;2023-08-01T00:07:02;7.87;;;5.23;;
5171;SDS011;2605;49.770;9.868;2023-08-01T00:09:28;9.47;;;6.33;;
5171;SDS011;2605;49.770;9.868;2023-08-01T00:11:53;10.57;;;6.20;;
5171;SDS011;2605;49.770;9.868;2023-08-01T00:14:19;6.47;;;5.00;;
5171;SDS011;2605;49.770;9.868;2023-08-01T00:16:48;6.53;;;5.60;;
5171;SDS011;2605;49.770;9.868;2023-08-01T00:19:15;10.93;;;5.73;;
5171;SDS011;2605;49.770;9.868;2023-08-01T00:21:40;5.57;;;5.03;;
5171;SDS011;2605;49.770;9.868;2023-08-01T00:24:06;6.80;;;5.60;;
5171;SDS011;2605;49.770;9.868;2023-08-01T00:26:33;9.83;;;5.70;;
5171;SDS011;2605;49.770;9.868;2023-08-01T00:28:58;7.87;;;5.60;;
5171;SDS011;2605;49.770;9.868;2023-08-01T00:31:24;7.40;;;5.97;;
5171;SDS011;2605;49.770;9.868;2023-08-01T00:33:49;7.10;;;5.97;;
5171;SDS011;2605;49.770;9.868;2023-08-01T00:36:15;6.90;;;5.90;;
5171;SDS011;2605;49.770;9.868;2023-08-01T00:38:40;6.20;;;5.23;;
5171;SDS011;2605;49.770;9.868;2023-08-01T00:41:08;8.80;;;5.47;;
5171;SDS011;2605;49.770;9.868;2023-08-01T00:43:34;8.33;;;5.50;;
5171;SDS011;2605;49.770;9.868;2023-08-01T00:46:00;15.53;;;5.97;;
5171;SDS011;2605;49.770;9.868;2023-08-01T00:48:27;7.60;;;5.03;;
5171;SDS011;2605;49.770;9.868;2023-08-01T00:50:54;8.10;;;5.70;;
5171;SDS011;2605;49.770;9.868;2023-08-01T00:53:21;6.20;;;4.73;;
5171;SDS011;2605;49.770;9.868;2023-08-01T00:55:46;6.87;;;5.80;;
5171;SDS011;2605;49.770;9.868;2023-08-01T00:58:12;14.40;;;5.37;;
5171;SDS011;2605;49.770;9.868;2023-08-01T01:00:38;6.10;;;5.50;;
5171;SDS011;2605;49.770;9.868;2023-08-01T01:03:04;5.40;;;4.90;;
5171;SDS011;2605;49.770;9.868;2023-08-01T01:05:31;9.27;;;5.47;;
5171;SDS011;2605;49.770;9.868;2023-08-01T01:08:02;9.13;;;6.73;;
5171;SDS011;2605;49.770;9.868;2023-08-01T01:10:29;7.40;;;5.47;;
5171;SDS011;2605;49.770;9.868;2023-08-01T01:13:04;6.33;;;5.70;;
5171;SDS011;2605;49.770;9.868;2023-08-01T01:15:29;8.00;;;4.80;;
5171;SDS011;2605;49.770;9.868;2023-08-01T01:17:55;8.80;;;4.60;;
5171;SDS011;2605;49.770;9.868;2023-08-01T01:20:22;6.53;;;5.10;;
5171;SDS011;2605;49.770;9.868;2023-08-01T01:22:53;5.40;;;4.90;;
5171;SDS011;2605;49.770;9.868;2023-08-01T01:25:20;4.70;;;4.27;;
5171;SDS011;2605;49.770;9.868;2023-08-01T01:27:48;8.43;;;5.27;;
5171;SDS011;2605;49.770;9.868;2023-08-01T01:30:16;8.47;;;5.13;;
5171;SDS011;2605;49.770;9.868;2023-08-01T01:32:42;10.30;;;5.53;;
5171;SDS011;2605;49.770;9.868;2023-08-01T01:35:08;8.33;;;4.90;;
5171;SDS011;2605;49.770;9.868;2023-08-01T01:37:35;15.47;;;5.33;;
5171;SDS011;2605;49.770;9.868;2023-08-01T01:40:00;14.27;;;6.03;;
5171;SDS011;2605;49.770;9.868;2023-08-01T01:42:26;7.20;;;5.93;;
5171;SDS011;2605;49.770;9.868;2023-08-01T01:44:51;6.30;;;4.97;;
5171;SDS011;2605;49.770;9.868;2023-08-01T01:47:17;12.93;;;5.30;;
5171;SDS011;2605;49.770;9.868;2023-08-01T01:49:42;6.80;;;5.83;;
5171;SDS011;2605;49.770;9.868;2023-08-01T01:52:08;6.03;;;5.40;;
5171;SDS011;2605;49.770;9.868;2023-08-01T01:54:33;9.30;;;5.37;;
5171;SDS011;2605;49.770;9.868;2023-08-01T01:56:59;8.50;;;5.57;;
5171;SDS011;2605;49.770;9.868;2023-08-01T01:59:24;8.90;;;6.00;;
5171;SDS011;2605;49.770;9.868;2023-08-01T02:01:50;8.23;;;5.20;;
5171;SDS011;2605;49.770;9.868;2023-08-01T02:04:15;9.00;;;5.40;;
5171;SDS011;2605;49.770;9.868;2023-08-01T02:06:40;6.60;;;5.50;;
5171;SDS011;2605;49.770;9.868;2023-08-01T02:09:06;6.97;;;4.90;;
5171;SDS011;2605;49.770;9.868;2023-08-01T02:11:32;4.73;;;4.30;;
5171;SDS011;2605;49.770;9.868;2023-08-01T02:13:57;7.17;;;5.13;;
5171;SDS011;2605;49.770;9.868;2023-08-01T02:16:23;6.20;;;4.77;;
5171;SDS011;2605;49.770;9.868;2023-08-01T02:18:48;4.03;;;2.90;;
5171;SDS011;2605;49.770;9.868;2023-08-01T02:21:14;7.83;;;5.57;;
5171;SDS011;2605;49.770;9.868;2023-08-01T02:23:39;7.07;;;5.70;;
5171;SDS011;2605;49.770;9.868;2023-08-01T02:26:05;8.10;;;5.03;;
5171;SDS011;2605;49.770;9.868;2023-08-01T02:28:33;5.73;;;4.73;;
5171;SDS011;2605;49.770;9.868;2023-08-01T02:30:58;6.63;;;5.33;;
5171;SDS011;2605;49.770;9.868;2023-08-01T02:33:24;7.27;;;5.03;;
5171;SDS011;2605;49.770;9.868;2023-08-01T02:35:49;10.57;;;4.90;;
5171;SDS011;2605;49.770;9.868;2023-08-01T02:38:15;6.93;;;4.90;;
5171;SDS011;2605;49.770;9.868;2023-08-01T02:40:40;8.10;;;5.27;;
5171;SDS011;2605;49.770;9.868;2023-08-01T02:43:06;9.10;;;4.97;;
5171;SDS011;2605;49.770;9.868;2023-08-01T02:45:31;9.57;;;5.53;;
5171;SDS011;2605;49.770;9.868;2023-08-01T02:47:57;10.50;;;5.13;;
5171;SDS011;2605;49.770;9.868;2023-08-01T02:50:22;7.43;;;5.13;;
5171;SDS011;2605;49.770;9.868;2023-08-01T02:52:48;8.67;;;5.50;;
5171;SDS011;2605;49.770;9.868;2023-08-01T02:55:13;6.90;;;5.53;;
5171;SDS011;2605;49.770;9.868;2023-08-01T02:57:39;5.63;;;4.87;;
5171;SDS011;2605;49.770;9.868;2023-08-01T03:00:04;6.73;;;5.60;;
5171;SDS011;2605;49.770;9.868;2023-08-01T03:02:31;5.60;;;5.10;;
5171;SDS011;2605;49.770;9.868;2023-08-01T03:04:59;6.07;;;4.93;;
5171;SDS011;2605;49.770;9.868;2023-08-01T03:07:25;11.27;;;4.87;;
5171;SDS011;2605;49.770;9.868;2023-08-01T03:09:50;8.10;;;4.33;;
5171;SDS011;2605;49.770;9.868;2023-08-01T03:12:16;4.90;;;4.40;;
5171;SDS011;2605;49.770;9.868;2023-08-01T03:14:41;7.80;;;5.63;;
5171;SDS011;2605;49.770;9.868;2023-08-01T03:17:08;7.37;;;4.37;;
5171;SDS011;2605;49.770;9.868;2023-08-01T03:19:33;6.13;;;4.50;;
5171;SDS011;2605;49.770;9.868;2023-08-01T03:21:59;9.00;;;4.40;;
5171;SDS011;2605;49.770;9.868;2023-08-01T03:24:25;5.03;;;4.53;;
5171;SDS011;2605;49.770;9.868;2023-08-01T03:26:51;7.10;;;4.60;;
5171;SDS011;2605;49.770;9.868;2023-08-01T03:29:19;5.80;;;3.97;;
5171;SDS011;2605;49.770;9.868;2023-08-01T03:31:44;9.77;;;5.00;;
5171;SDS011;2605;49.770;9.868;2023-08-01T03:34:13;10.40;;;4.73;;
5171;SDS011;2605;49.770;9.868;2023-08-01T03:36:38;4.53;;;4.13;;
5171;SDS011;2605;49.770;9.868;2023-08-01T03:39:04;3.70;;;3.27;;
5171;SDS011;2605;49.770;9.868;2023-08-01T03:41:29;5.77;;;4.43;;
5171;SDS011;2605;49.770;9.868;2023-08-01T03:43:56;7.10;;;4.27;;
5171;SDS011;2605;49.770;9.868;2023-08-01T03:46:21;5.57;;;4.73;;
5171;SDS011;2605;49.770;9.868;2023-08-01T03:48:47;4.73;;;4.33;;
5171;SDS011;2605;49.770;9.868;2023-08-01T03:51:12;10.07;;;5.10;;
5171;SDS011;2605;49.770;9.868;2023-08-01T03:53:40;7.77;;;5.20;;
5171;SDS011;2605;49.770;9.868;2023-08-01T03:56:06;7.17;;;4.77;;
5171;SDS011;2605;49.770;9.868;2023-08-01T03:58:32;5.17;;;4.77;;
5171;SDS011;2605;49.770;9.868;2023-08-01T04:00:57;10.37;;;5.40;;
5171;SDS011;2605;49.770;9.868;2023-08-01T04:03:23;6.73;;;5.63;;
5171;SDS011;2605;49.770;9.868;2023-08-01T04:05:51;7.00;;;5.53;;
5171;SDS011;2605;49.770;9.868;2023-08-01T04:08:17;7.07;;;5.43;;
5171;SDS011;2605;49.770;9.868;2023-08-01T04:10:42;7.80;;;6.07;;
5171;SDS011;2605;49.770;9.868;2023-08-01T04:13:08;7.60;;;6.07;;
5171;SDS011;2605;49.770;9.868;2023-08-01T04:15:34;6.60;;;5.70;;
5171;SDS011;2605;49.770;9.868;2023-08-01T04:17:59;6.80;;;6.20;;
5171;SDS011;2605;49.770;9.868;2023-08-01T04:20:25;6.33;;;5.67;;
5171;SDS011;2605;49.770;9.868;2023-08-01T04:22:50;5.90;;;4.17;;
5171;SDS011;2605;49.770;9.868;2023-08-01T04:25:16;4.23;;;3.30;;
5171;SDS011;2605;49.770;9.868;2023-08-01T04:27:41;5.93;;;5.23;;
5171;SDS011;2605;49.770;9.868;2023-08-01T04:30:07;5.10;;;4.57;;
5171;SDS011;2605;49.770;9.868;2023-08-01T04:32:32;4.50;;;4.07;;
5171;SDS011;2605;49.770;9.868;2023-08-01T04:34:58;5.30;;;4.80;;
5171;SDS011;2605;49.770;9.868;2023-08-01T04:37:23;6.33;;;3.90;;
5171;SDS011;2605;49.770;9.868;2023-08-01T04:39:50;6.87;;;5.03;;
5171;SDS011;2605;49.770;9.868;2023-08-01T04:42:16;5.10;;;4.70;;
5171;SDS011;2605;49.770;9.868;2023-08-01T04:44:41;8.80;;;5.03;;
5171;SDS011;2605;49.770;9.868;2023-08-01T04:47:07;5.53;;;5.03;;
5171;SDS011;2605;49.770;9.868;2023-08-01T04:49:32;4.60;;;4.00;;
5171;SDS011;2605;49.770;9.868;2023-08-01T04:51:58;7.83;;;3.87;;
5171;SDS011;2605;49.770;9.868;2023-08-01T04:54:23;5.93;;;4.70;;
5171;SDS011;2605;49.770;9.868;2023-08-01T04:56:49;4.97;;;4.47;;
5171;SDS011;2605;49.770;9.868;2023-08-01T04:59:15;5.10;;;4.27;;
5171;SDS011;2605;49.770;9.868;2023-08-01T05:01:40;5.20;;;4.33;;
5171;SDS011;2605;49.770;9.868;2023-08-01T05:04:06;3.20;;;2.90;;
5171;SDS011;2605;49.770;9.868;2023-08-01T05:06:31;5.83;;;4.87;;
5171;SDS011;2605;49.770;9.868;2023-08-01T05:08:56;8.40;;;4.00;;
5171;SDS011;2605;49.770;9.868;2023-08-01T05:11:22;5.30;;;4.80;;
5171;SDS011;2605;49.770;9.868;2023-08-01T05:13:48;5.37;;;3.70;;
5171;SDS011;2605;49.770;9.868;2023-08-01T05:16:16;4.73;;;4.20;;
5171;SDS011;2605;49.770;9.868;2023-08-01T05:18:42;6.20;;;3.53;;
5171;SDS011;2605;49.770;9.868;2023-08-01T05:21:07;9.03;;;3.73;;
5171;SDS011;2605;49.770;9.868;2023-08-01T05:23:36;4.60;;;3.93;;
5171;SDS011;2605;49.770;9.868;2023-08-01T05:26:01;4.73;;;4.33;;
5171;SDS011;2605;49.770;9.868;2023-08-01T05:28:27;8.43;;;4.80;;
5171;SDS011;2605;49.770;9.868;2023-08-01T05:30:52;5.00;;;4.20;;
5171;SDS011;2605;49.770;9.868;2023-08-01T05:33:18;5.17;;;4.60;;
5171;SDS011;2605;49.770;9.868;2023-08-01T05:35:44;5.20;;;4.70;;
5171;SDS011;2605;49.770;9.868;2023-08-01T05:38:09;4.80;;;4.40;;
5171;SDS011;2605;49.770;9.868;2023-08-01T05:40:34;5.00;;;4.10;;
5171;SDS011;2605;49.770;9.868;2023-08-01T05:43:00;5.57;;;5.07;;
5171;SDS011;2605;49.770;9.868;2023-08-01T05:45:26;5.13;;;4.73;;
5171;SDS011;2605;49.770;9.868;2023-08-01T05:47:51;10.20;;;5.17;;
5171;SDS011;2605;49.770;9.868;2023-08-01T05:50:17;5.30;;;4.73;;
5171;SDS011;2605;49.770;9.868;2023-08-01T05:52:43;5.43;;;4.27;;
5171;SDS011;2605;49.770;9.868;2023-08-01T05:55:08;7.70;;;5.20;;
5171;SDS011;2605;49.770;9.868;2023-08-01T05:57:34;5.73;;;5.20;;
5171;SDS011;2605;49.770;9.868;2023-08-01T06:00:00;6.40;;;3.70;;
5171;SDS011;2605;49.770;9.868;2023-08-01T06:02:25;4.67;;;4.30;;
5171;SDS011;2605;49.770;9.868;2023-08-01T06:04:51;4.20;;;3.50;;
5171;SDS011;2605;49.770;9.868;2023-08-01T06:07:16;6.43;;;3.73;;
5171;SDS011;2605;49.770;9.868;2023-08-01T06:09:47;4.73;;;3.77;;
5171;SDS011;2605;49.770;9.868;2023-08-01T06:12:19;4.27;;;3.87;;
5171;SDS011;2605;49.770;9.868;2023-08-01T06:14:44;4.77;;;4.23;;
5171;SDS011;2605;49.770;9.868;2023-08-01T06:17:11;4.30;;;3.90;;
5171;SDS011;2605;49.770;9.868;2023-08-01T06:19:36;5.87;;;3.07;;
5171;SDS011;2605;49.770;9.868;2023-08-01T06:22:02;4.23;;;3.80;;
5171;SDS011;2605;49.770;9.868;2023-08-01T06:24:27;3.60;;;3.30;;
5171;SDS011;2605;49.770;9.868;2023-08-01T06:26:53;4.47;;;3.57;;
5171;SDS011;2605;49.770;9.868;2023-08-01T06:29:18;4.30;;;3.90;;
5171;SDS011;2605;49.770;9.868;2023-08-01T06:31:44;3.87;;;3.57;;
5171;SDS011;2605;49.770;9.868;2023-08-01T06:34:09;3.17;;;2.87;;
5171;SDS011;2605;49.770;9.868;2023-08-01T06:36:35;3.67;;;3.30;;
5171;SDS011;2605;49.770;9.868;2023-08-01T06:39:01;4.83;;;4.20;;
5171;SDS011;2605;49.770;9.868;2023-08-01T06:41:26;2.73;;;2.53;;
5171;SDS011;2605;49.770;9.868;2023-08-01T06:43:52;5.07;;;3.33;;
5171;SDS011;2605;49.770;9.868;2023-08-01T06:46:17;4.53;;;3.63;;
5171;SDS011;2605;49.770;9.868;2023-08-01T06:48:43;2.83;;;2.63;;
5171;SDS011;2605;49.770;9.868;2023-08-01T06:51:08;3.43;;;3.13;;
5171;SDS011;2605;49.770;9.868;2023-08-01T06:53:34;2.67;;;2.47;;
5171;SDS011;2605;49.770;9.868;2023-08-01T06:55:59;3.77;;;3.10;;
5171;SDS011;2605;49.770;9.868;2023-08-01T06:58:25;3.23;;;2.90;;
5171;SDS011;2605;49.770;9.868;2023-08-01T07:00:50;4.10;;;3.67;;
5171;SDS011;2605;49.770;9.868;2023-08-01T07:03:16;4.03;;;3.40;;
5171;SDS011;2605;49.770;9.868;2023-08-01T07:05:42;3.77;;;3.27;;
5171;SDS011;2605;49.770;9.868;2023-08-01T07:08:07;4.10;;;3.50;;
5171;SDS011;2605;49.770;9.868;2023-08-01T07:10:36;4.87;;;3.57;;
5171;SDS011;2605;49.770;9.868;2023-08-01T07:13:02;3.53;;;3.20;;
5171;SDS011;2605;49.770;9.868;2023-08-01T07:15:34;2.77;;;2.53;;
5171;SDS011;2605;49.770;9.868;2023-08-01T07:17:59;3.30;;;2.43;;
5171;SDS011;2605;49.770;9.868;2023-08-01T07:20:25;3.37;;;3.17;;
5171;SDS011;2605;49.770;9.868;2023-08-01T07:22:50;3.63;;;2.37;;
5171;SDS011;2605;49.770;9.868;2023-08-01T07:25:16;3.33;;;3.07;;
5171;SDS011;2605;49.770;9.868;2023-08-01T07:27:42;3.03;;;2.83;;
5171;SDS011;2605;49.770;9.868;2023-08-01T07:30:08;2.50;;;2.30;;
5171;SDS011;2605;49.770;9.868;2023-08-01T07:32:35;2.83;;;2.50;;
5171;SDS011;2605;49.770;9.868;2023-08-01T07:35:02;2.30;;;2.17;;
5171;SDS011;2605;49.770;9.868;2023-08-01T07:37:28;3.53;;;1.83;;
5171;SDS011;2605;49.770;9.868;2023-08-01T07:39:55;3.53;;;2.47;;
5171;SDS011;2605;49.770;9.868;2023-08-01T07:42:21;3.23;;;2.13;;
5171;SDS011;2605;49.770;9.868;2023-08-01T07:44:46;2.70;;;2.50;;
5171;SDS011;2605;49.770;9.868;2023-08-01T07:47:12;2.87;;;2.57;;
5171;SDS011;2605;49.770;9.868;2023-08-01T07:49:38;5.63;;;2.20;;
5171;SDS011;2605;49.770;9.868;2023-08-01T07:52:03;2.60;;;2.10;;
5171;SDS011;2605;49.770;9.868;2023-08-01T07:54:29;3.20;;;3.00;;
5171;SDS011;2605;49.770;9.868;2023-08-01T07:56:55;3.70;;;1.33;;
5171;SDS011;2605;49.770;9.868;2023-08-01T07:59:23;2.63;;;2.30;;
5171;SDS011;2605;49.770;9.868;2023-08-01T08:01:48;2.53;;;2.10;;
5171;SDS011;2605;49.770;9.868;2023-08-01T08:04:14;3.00;;;2.40;;
5171;SDS011;2605;49.770;9.868;2023-08-01T08:06:40;2.40;;;2.27;;
5171;SDS011;2605;49.770;9.868;2023-08-01T08:09:06;3.10;;;2.80;;
5171;SDS011;2605;49.770;9.868;2023-08-01T08:11:31;3.17;;;2.77;;
5171;SDS011;2605;49.770;9.868;2023-08-01T08:13:58;3.53;;;3.40;;
5171;SDS011;2605;49.770;9.868;2023-08-01T08:16:24;3.57;;;3.23;;
5171;SDS011;2605;49.770;9.868;2023-08-01T08:18:49;3.80;;;1.83;;
5171;SDS011;2605;49.770;9.868;2023-08-01T08:21:15;1.80;;;1.70;;
5171;SDS011;2605;49.770;9.868;2023-08-01T08:23:40;1.97;;;1.87;;
5171;SDS011;2605;49.770;9.868;2023-08-01T08:26:06;1.70;;;1.60;;
5171;SDS011;2605;49.770;9.868;2023-08-01T08:28:32;2.17;;;1.70;;
5171;SDS011;2605;49.770;9.868;2023-08-01T08:30:58;1.90;;;1.63;;
5171;SDS011;2605;49.770;9.868;2023-08-01T08:33:25;2.10;;;1.90;;
5171;SDS011;2605;49.770;9.868;2023-08-01T08:35:51;3.80;;;1.60;;
5171;SDS011;2605;49.770;9.868;2023-08-01T08:38:17;1.83;;;1.73;;
5171;SDS011;2605;49.770;9.868;2023-08-01T08:40:48;1.40;;;1.30;;
5171;SDS011;2605;49.770;9.868;2023-08-01T08:43:32;2.20;;;2.10;;
5171;SDS011;2605;49.770;9.868;2023-08-01T08:45:59;1.83;;;1.73;;
5171;SDS011;2605;49.770;9.868;2023-08-01T08:48:26;1.43;;;1.33;;
5171;SDS011;2605;49.770;9.868;2023-08-01T08:50:54;1.80;;;1.70;;
5171;SDS011;2605;49.770;9.868;2023-08-01T08:53:24;1.40;;;1.30;;
5171;SDS011;2605;49.770;9.868;2023-08-01T08:55:50;1.60;;;1.50;;
5171;SDS011;2605;49.770;9.868;2023-08-01T08:58:16;1.87;;;1.70;;
5171;SDS011;2605;49.770;9.868;2023-08-01T09:00:42;1.40;;;1.30;;
5171;SDS011;2605;49.770;9.868;2023-08-01T09:03:08;2.60;;;1.37;;
5171;SDS011;2605;49.770;9.868;2023-08-01T09:05:34;1.87;;;1.77;;
5171;SDS011;2605;49.770;9.868;2023-08-01T09:08:13;1.03;;;1.03;;
5171;SDS011;2605;49.770;9.868;2023-08-01T09:10:41;1.20;;;1.10;;
5171;SDS011;2605;49.770;9.868;2023-08-01T09:13:07;3.70;;;1.93;;
5171;SDS011;2605;49.770;9.868;2023-08-01T09:15:33;2.00;;;1.90;;
5171;SDS011;2605;49.770;9.868;2023-08-01T09:17:59;1.90;;;1.67;;
5171;SDS011;2605;49.770;9.868;2023-08-01T09:20:27;1.90;;;1.80;;
5171;SDS011;2605;49.770;9.868;2023-08-01T09:22:53;1.37;;;1.27;;
5171;SDS011;2605;49.770;9.868;2023-08-01T09:25:30;4.20;;;1.40;;
5171;SDS011;2605;49.770;9.868;2023-08-01T09:27:57;2.80;;;1.10;;
5171;SDS011;2605;49.770;9.868;2023-08-01T09:30:22;1.30;;;1.20;;
5171;SDS011;2605;49.770;9.868;2023-08-01T09:32:51;1.63;;;1.33;;
5171;SDS011;2605;49.770;9.868;2023-08-01T09:35:18;1.77;;;1.67;;
5171;SDS011;2605;49.770;9.868;2023-08-01T09:37:43;1.20;;;1.20;;
5171;SDS011;2605;49.770;9.868;2023-08-01T09:40:09;1.53;;;1.43;;
5171;SDS011;2605;49.770;9.868;2023-08-01T09:42:41;2.20;;;1.43;;
5171;SDS011;2605;49.770;9.868;2023-08-01T09:45:14;1.97;;;1.53;;
5171;SDS011;2605;49.770;9.868;2023-08-01T09:47:41;2.07;;;1.97;;
5171;SDS011;2605;49.770;9.868;2023-08-01T09:50:11;1.40;;;1.30;;
5171;SDS011;2605;49.770;9.868;2023-08-01T09:52:45;3.47;;;1.90;;
5171;SDS011;2605;49.770;9.868;2023-08-01T09:55:17;1.60;;;1.40;;
5171;SDS011;2605;49.770;9.868;2023-08-01T09:57:49;1.40;;;1.30;;
5171;SDS011;2605;49.770;9.868;2023-08-01T10:00:16;1.83;;;1.73;;
5171;SDS011;2605;49.770;9.868;2023-08-01T10:02:42;1.57;;;1.40;;
5171;SDS011;2605;49.770;9.868;2023-08-01T10:05:08;2.03;;;1.83;;
5171;SDS011;2605;49.770;9.868;2023-08-01T10:07:35;2.20;;;0.93;;
5171;SDS011;2605;49.770;9.868;2023-08-01T10:10:05;2.07;;;1.40;;
5171;SDS011;2605;49.770;9.868;2023-08-01T10:12:31;1.43;;;1.43;;
5171;SDS011;2605;49.770;9.868;2023-08-01T10:14:57;1.77;;;1.20;;
5171;SDS011;2605;49.770;9.868;2023-08-01T10:17:23;3.33;;;1.70;;
5171;SDS011;2605;49.770;9.868;2023-08-01T10:19:51;1.47;;;1.37;;
5171;SDS011;2605;49.770;9.868;2023-08-01T10:22:18;2.63;;;1.60;;
5171;SDS011;2605;49.770;9.868;2023-08-01T10:24:45;1.30;;;1.20;;
5171;SDS011;2605;49.770;9.868;2023-08-01T10:27:15;1.20;;;1.10;;
5171;SDS011;2605;49.770;9.868;2023-08-01T10:29:44;2.40;;;1.70;;
5171;SDS011;2605;49.770;9.868;2023-08-01T10:32:10;1.07;;;1.07;;
5171;SDS011;2605;49.770;9.868;2023-08-01T10:34:36;1.30;;;1.20;;
5171;SDS011;2605;49.770;9.868;2023-08-01T10:37:02;1.73;;;1.20;;
5171;SDS011;2605;49.770;9.868;2023-08-01T10:39:28;1.83;;;1.50;;
5171;SDS011;2605;49.770;9.868;2023-08-01T10:42:00;1.23;;;1.20;;
5171;SDS011;2605;49.770;9.868;2023-08-01T10:44:30;1.50;;;1.40;;
5171;SDS011;2605;49.770;9.868;2023-08-01T10:47:01;1.40;;;1.30;;
5171;SDS011;2605;49.770;9.868;2023-08-01T10:49:38;0.97;;;0.97;;
5171;SDS011;2605;49.770;9.868;2023-08-01T10:54:44;1.70;;;1.60;;
5171;SDS011;2605;49.770;9.868;2023-08-01T10:57:17;1.20;;;1.20;;
5171;SDS011;2605;49.770;9.868;2023-08-01T10:59:42;0.90;;;0.90;;
5171;SDS011;2605;49.770;9.868;2023-08-01T11:02:09;2.80;;;1.33;;
5171;SDS011;2605;49.770;9.868;2023-08-01T11:04:34;1.30;;;1.20;;
5171;SDS011;2605;49.770;9.868;2023-08-01T11:07:00;1.50;;;1.40;;
5171;SDS011;2605;49.770;9.868;2023-08-01T11:09:27;1.80;;;1.70;;
5171;SDS011;2605;49.770;9.868;2023-08-01T11:11:54;2.37;;;1.80;;
5171;SDS011;2605;49.770;9.868;2023-08-01T11:14:25;1.53;;;1.43;;
5171;SDS011;2605;49.770;9.868;2023-08-01T11:16:53;1.60;;;1.50;;
5171;SDS011;2605;49.770;9.868;2023-08-01T11:19:21;1.27;;;1.17;;
5171;SDS011;2605;49.770;9.868;2023-08-01T11:21:50;1.37;;;1.27;;
5171;SDS011;2605;49.770;9.868;2023-08-01T11:24:17;1.63;;;1.50;;
5171;SDS011;2605;49.770;9.868;2023-08-01T11:26:44;1.63;;;1.50;;
5171;SDS011;2605;49.770;9.868;2023-08-01T11:29:14;2.27;;;1.50;;
5171;SDS011;2605;49.770;9.868;2023-08-01T11:31:40;1.37;;;1.27;;
5171;SDS011;2605;49.770;9.868;2023-08-01T11:34:07;1.37;;;1.27;;
5171;SDS011;2605;49.770;9.868;2023-08-01T11:36:36;1.37;;;1.27;;
5171;SDS011;2605;49.770;9.868;2023-08-01T11:39:02;1.50;;;1.20;;
5171;SDS011;2605;49.770;9.868;2023-08-01T11:41:28;1.40;;;1.30;;
5171;SDS011;2605;49.770;9.868;2023-08-01T11:43:54;1.30;;;1.20;;
5171;SDS011;2605;49.770;9.868;2023-08-01T11:46:30;2.87;;;1.27;;
5171;SDS011;2605;49.770;9.868;2023-08-01T11:48:57;2.70;;;1.20;;
5171;SDS011;2605;49.770;9.868;2023-08-01T11:51:24;1.40;;;1.30;;
5171;SDS011;2605;49.770;9.868;2023-08-01T11:53:59;1.27;;;1.17;;
5171;SDS011;2605;49.770;9.868;2023-08-01T11:56:26;1.50;;;1.40;;
5171;SDS011;2605;49.770;9.868;2023-08-01T11:58:52;1.47;;;1.37;;
5171;SDS011;2605;49.770;9.868;2023-08-01T12:01:17;0.90;;;0.90;;
5171;SDS011;2605;49.770;9.868;2023-08-01T12:06:10;1.43;;;1.00;;
5171;SDS011;2605;49.770;9.868;2023-08-01T12:08:37;1.77;;;1.40;;
5171;SDS011;2605;49.770;9.868;2023-08-01T12:11:03;1.80;;;0.90;;
5171;SDS011;2605;49.770;9.868;2023-08-01T12:13:28;1.10;;;1.10;;
5171;SDS011;2605;49.770;9.868;2023-08-01T12:15:56;1.30;;;1.20;;
5171;SDS011;2605;49.770;9.868;2023-08-01T12:18:22;1.70;;;1.37;;
5171;SDS011;2605;49.770;9.868;2023-08-01T12:20:49;1.00;;;0.90;;
5171;SDS011;2605;49.770;9.868;2023-08-01T12:23:14;1.20;;;1.10;;
5171;SDS011;2605;49.770;9.868;2023-08-01T12:25:40;4.63;;;1.27;;
5171;SDS011;2605;49.770;9.868;2023-08-01T12:28:09;1.10;;;1.10;;
5171;SDS011;2605;49.770;9.868;2023-08-01T12:30:34;1.20;;;1.10;;
5171;SDS011;2605;49.770;9.868;2023-08-01T12:33:00;1.43;;;1.20;;
5171;SDS011;2605;49.770;9.868;2023-08-01T12:35:25;1.27;;;1.17;;
5171;SDS011;2605;49.770;9.868;2023-08-01T12:37:52;1.53;;;1.20;;
5171;SDS011;2605;49.770;9.868;2023-08-01T12:40:18;1.00;;;1.00;;
5171;SDS011;2605;49.770;9.868;2023-08-01T12:42:44;1.30;;;1.20;;
5171;SDS011;2605;49.770;9.868;2023-08-01T12:45:09;1.27;;;1.17;;
5171;SDS011;2605;49.770;9.868;2023-08-01T12:47:35;1.47;;;1.30;;
5171;SDS011;2605;49.770;9.868;2023-08-01T12:50:00;1.20;;;1.10;;
5171;SDS011;2605;49.770;9.868;2023-08-01T12:52:26;1.83;;;1.00;;
5171;SDS011;2605;49.770;9.868;2023-08-01T12:54:51;2.57;;;1.00;;
5171;SDS011;2605;49.770;9.868;2023-08-01T12:57:20;1.50;;;1.40;;
5171;SDS011;2605;49.770;9.868;2023-08-01T12:59:46;3.03;;;1.00;;
5171;SDS011;2605;49.770;9.868;2023-08-01T13:02:13;2.90;;;1.20;;
5171;SDS011;2605;49.770;9.868;2023-08-01T13:04:41;1.30;;;1.20;;
5171;SDS011;2605;49.770;9.868;2023-08-01T13:07:10;1.03;;;0.93;;
5171;SDS011;2605;49.770;9.868;2023-08-01T13:09:36;0.93;;;0.93;;
5171;SDS011;2605;49.770;9.868;2023-08-01T13:12:01;1.47;;;1.33;;
5171;SDS011;2605;49.770;9.868;2023-08-01T13:14:27;1.73;;;1.63;;
5171;SDS011;2605;49.770;9.868;2023-08-01T13:16:52;1.20;;;1.10;;
5171;SDS011;2605;49.770;9.868;2023-08-01T13:19:18;1.53;;;1.43;;
5171;SDS011;2605;49.770;9.868;2023-08-01T13:21:43;1.43;;;1.30;;
5171;SDS011;2605;49.770;9.868;2023-08-01T13:24:09;2.30;;;1.30;;
5171;SDS011;2605;49.770;9.868;2023-08-01T13:26:35;4.53;;;1.30;;
5171;SDS011;2605;49.770;9.868;2023-08-01T13:29:01;1.37;;;1.23;;
5171;SDS011;2605;49.770;9.868;2023-08-01T13:31:26;2.40;;;1.53;;
5171;SDS011;2605;49.770;9.868;2023-08-01T13:33:55;1.40;;;1.17;;
5171;SDS011;2605;49.770;9.868;2023-08-01T13:36:21;1.60;;;1.50;;
5171;SDS011;2605;49.770;9.868;2023-08-01T13:38:46;1.20;;;1.10;;
5171;SDS011;2605;49.770;9.868;2023-08-01T13:41:13;3.90;;;1.47;;
5171;SDS011;2605;49.770;9.868;2023-08-01T13:43:39;1.30;;;1.20;;
5171;SDS011;2605;49.770;9.868;2023-08-01T13:46:13;1.50;;;1.37;;
5171;SDS011;2605;49.770;9.868;2023-08-01T13:48:41;1.37;;;1.23;;
5171;SDS011;2605;49.770;9.868;2023-08-01T13:51:07;1.87;;;1.40;;
5171;SDS011;2605;49.770;9.868;2023-08-01T13:53:32;1.10;;;1.00;;
5171;SDS011;2605;49.770;9.868;2023-08-01T13:55:58;1.87;;;1.07;;
5171;SDS011;2605;49.770;9.868;2023-08-01T13:58:24;1.30;;;1.07;;
5171;SDS011;2605;49.770;9.868;2023-08-01T14:00:49;0.97;;;0.97;;
5171;SDS011;2605;49.770;9.868;2023-08-01T14:03:15;1.20;;;1.10;;
5171;SDS011;2605;49.770;9.868;2023-08-01T14:05:41;1.20;;;1.10;;
5171;SDS011;2605;49.770;9.868;2023-08-01T14:08:06;1.00;;;1.00;;
5171;SDS011;2605;49.770;9.868;2023-08-01T14:10:31;3.60;;;1.20;;
5171;SDS011;2605;49.770;9.868;2023-08-01T14:12:57;1.50;;;1.40;;
5171;SDS011;2605;49.770;9.868;2023-08-01T14:15:22;1.50;;;1.40;;
5171;SDS011;2605;49.770;9.868;2023-08-01T14:17:48;1.60;;;1.50;;
5171;SDS011;2605;49.770;9.868;2023-08-01T14:20:14;2.13;;;1.10;;
5171;SDS011;2605;49.770;9.868;2023-08-01T14:22:40;1.53;;;1.43;;
5171;SDS011;2605;49.770;9.868;2023-08-01T14:25:07;1.40;;;1.30;;
5171;SDS011;2605;49.770;9.868;2023-08-01T14:27:34;1.50;;;1.40;;
5171;SDS011;2605;49.770;9.868;2023-08-01T14:29:59;6.33;;;1.80;;
5171;SDS011;2605;49.770;9.868;2023-08-01T14:32:25;3.13;;;1.23;;
5171;SDS011;2605;49.770;9.868;2023-08-01T14:34:50;2.50;;;1.67;;
5171;SDS011;2605;49.770;9.868;2023-08-01T14:37:19;2.50;;;1.20;;
5171;SDS011;2605;49.770;9.868;2023-08-01T14:39:48;2.10;;;1.97;;
5171;SDS011;2605;49.770;9.868;2023-08-01T14:42:15;2.23;;;1.80;;
5171;SDS011;2605;49.770;9.868;2023-08-01T14:44:43;2.00;;;1.80;;
5171;SDS011;2605;49.770;9.868;2023-08-01T14:47:09;2.57;;;1.63;;
5171;SDS011;2605;49.770;9.868;2023-08-01T14:49:34;3.63;;;1.80;;
5171;SDS011;2605;49.770;9.868;2023-08-01T14:52:00;1.77;;;1.67;;
5171;SDS011;2605;49.770;9.868;2023-08-01T14:54:25;1.50;;;1.40;;
5171;SDS011;2605;49.770;9.868;2023-08-01T14:56:51;1.60;;;1.50;;
5171;SDS011;2605;49.770;9.868;2023-08-01T14:59:17;2.60;;;1.43;;
5171;SDS011;2605;49.770;9.868;2023-08-01T15:01:42;1.37;;;1.27;;
5171;SDS011;2605;49.770;9.868;2023-08-01T15:04:08;1.97;;;1.10;;
5171;SDS011;2605;49.770;9.868;2023-08-01T15:06:33;2.30;;;1.60;;
5171;SDS011;2605;49.770;9.868;2023-08-01T15:08:58;9.63;;;1.90;;
5171;SDS011;2605;49.770;9.868;2023-08-01T15:11:24;1.33;;;1.23;;
5171;SDS011;2605;49.770;9.868;2023-08-01T15:13:49;1.50;;;1.40;;
5171;SDS011;2605;49.770;9.868;2023-08-01T15:16:15;1.70;;;1.60;;